Donnes mto: Semaine 24/02/14 - 02/03/14 (S 9)
Date Horaire Temp. Toit Hum. E. Baromtre Pluie Vent Moyen Direction P. de rose Temp au vent Rafales
24/02/2014 00:00 8,7 C 95 % 1006,9 hPa 0,0 mm 6,1 km/h (2 Bft) E-NE 7,9 C 8,2 C 13,7 km/h (3 Bft)
24/02/2014 01:00 8,3 C 95 % 1006,6 hPa 0,0 mm 4,8 km/h (1 Bft) E-NE 7,6 C 8,1 C 10,7 km/h (2 Bft)
24/02/2014 02:00 8,1 C 95 % 1006,2 hPa 0,0 mm 3,3 km/h (1 Bft) E-NE 7,5 C 8,1 C 8,4 km/h (2 Bft)
24/02/2014 03:00 7,7 C 96 % 1006,0 hPa 0,0 mm 0,4 km/h (0 Bft) NE 7,2 C 7,7 C 1,7 km/h (1 Bft)
24/02/2014 04:00 8,1 C 96 % 1005,7 hPa 0,0 mm 2,7 km/h (1 Bft) E-NE 7,5 C 8,1 C 5,9 km/h (2 Bft)
24/02/2014 05:00 7,9 C 96 % 1005,7 hPa 0,0 mm 2,9 km/h (1 Bft) NE 7,3 C 7,9 C 5,7 km/h (1 Bft)
24/02/2014 06:00 7,5 C 97 % 1006,0 hPa 0,0 mm 2,9 km/h (1 Bft) E-NE 7,0 C 7,5 C 7,3 km/h (2 Bft)
24/02/2014 07:00 7,4 C 98 % 1006,2 hPa 0,0 mm 3,1 km/h (1 Bft) E-NE 7,1 C 7,4 C 6,4 km/h (2 Bft)
24/02/2014 08:00 7,7 C 98 % 1006,4 hPa 0,0 mm 3,4 km/h (1 Bft) E-NE 7,4 C 7,7 C 6,3 km/h (2 Bft)
24/02/2014 09:00 9,4 C 97 % 1006,8 hPa 0,0 mm 3,4 km/h (1 Bft) E-NE 9,0 C 9,4 C 8,0 km/h (2 Bft)
24/02/2014 10:00 11,2 C 92 % 1007,2 hPa 0,0 mm 7,3 km/h (2 Bft) S 10,0 C 10,6 C 15,7 km/h (3 Bft)
24/02/2014 11:00 11,7 C 88 % 1007,6 hPa 0,0 mm 7,9 km/h (2 Bft) S-SE 9,7 C 10,7 C 17,0 km/h (3 Bft)
24/02/2014 12:00 12,1 C 86 % 1007,4 hPa 0,0 mm 7,6 km/h (2 Bft) S 9,7 C 11,3 C 15,6 km/h (3 Bft)
24/02/2014 13:00 12,5 C 78 % 1007,2 hPa 0,0 mm 10,1 km/h (2 Bft) S 8,8 C 10,4 C 21,4 km/h (4 Bft)
24/02/2014 14:00 12,1 C 75 % 1006,9 hPa 0,0 mm 9,9 km/h (2 Bft) S-SE 7,7 C 10,0 C 18,8 km/h (3 Bft)
24/02/2014 15:00 11,4 C 79 % 1006,6 hPa 0,0 mm 10,3 km/h (2 Bft) S-SE 7,9 C 9,0 C 20,4 km/h (4 Bft)
24/02/2014 16:00 11,6 C 80 % 1006,2 hPa 0,0 mm 11,9 km/h (2 Bft) S-SE 8,2 C 8,4 C 23,9 km/h (4 Bft)
24/02/2014 17:00 11,2 C 81 % 1006,0 hPa 0,0 mm 13,1 km/h (3 Bft) S 8,0 C 7,4 C 26,7 km/h (4 Bft)
24/02/2014 18:00 10,5 C 84 % 1005,8 hPa 0,0 mm 10,8 km/h (2 Bft) S-SE 8,0 C 7,8 C 22,6 km/h (4 Bft)
24/02/2014 19:00 10,2 C 83 % 1005,7 hPa 0,0 mm 11,1 km/h (2 Bft) S 7,5 C 7,3 C 22,4 km/h (4 Bft)
24/02/2014 20:00 10,3 C 81 % 1005,2 hPa 0,0 mm 12,8 km/h (3 Bft) S 7,1 C 6,5 C 25,5 km/h (4 Bft)
24/02/2014 21:00 9,9 C 84 % 1004,5 hPa 0,0 mm 12,3 km/h (3 Bft) S-SE 7,3 C 6,3 C 26,5 km/h (4 Bft)
24/02/2014 22:00 8,7 C 94 % 1003,7 hPa 0,0 mm 12,0 km/h (2 Bft) S-SE 7,8 C 5,1 C 26,6 km/h (4 Bft)
24/02/2014 23:00 8,9 C 97 % 1002,6 hPa 0,0 mm 14,6 km/h (3 Bft) S 8,4 C 4,1 C 32,5 km/h (5 Bft)
25/02/2014 00:00 8,9 C 96 % 1002,8 hPa 0,0 mm 9,3 km/h (2 Bft) S 8,3 C 7,0 C 19,7 km/h (3 Bft)
25/02/2014 01:00 8,6 C 96 % 1002,3 hPa 0,0 mm 5,8 km/h (2 Bft) S-SE 8,0 C 8,0 C 12,9 km/h (3 Bft)
25/02/2014 02:00 8,0 C 94 % 1001,9 hPa 0,0 mm 7,6 km/h (2 Bft) S 7,1 C 6,8 C 15,8 km/h (3 Bft)
25/02/2014 03:00 7,4 C 94 % 1001,4 hPa 0,0 mm 6,9 km/h (2 Bft) S-SE 6,5 C 6,6 C 14,0 km/h (3 Bft)
25/02/2014 04:00 7,4 C 95 % 1000,8 hPa 0,0 mm 7,7 km/h (2 Bft) S 6,6 C 6,1 C 16,4 km/h (3 Bft)
25/02/2014 05:00 7,6 C 91 % 1000,7 hPa 0,0 mm 9,7 km/h (2 Bft) S 6,2 C 5,2 C 23,6 km/h (4 Bft)
25/02/2014 06:00 7,6 C 87 % 1001,0 hPa 0,0 mm 5,8 km/h (2 Bft) S-SO 5,6 C 7,2 C 15,2 km/h (3 Bft)
25/02/2014 07:00 7,6 C 88 % 1001,0 hPa 0,0 mm 5,1 km/h (1 Bft) S-SE 5,6 C 7,1 C 12,7 km/h (3 Bft)
25/02/2014 08:00 6,3 C 93 % 1001,3 hPa 0,0 mm 3,7 km/h (1 Bft) S-SO 5,1 C 6,0 C 9,4 km/h (2 Bft)
25/02/2014 09:00 7,0 C 91 % 1001,9 hPa 0,0 mm 6,5 km/h (2 Bft) S 5,6 C 6,2 C 15,4 km/h (3 Bft)
25/02/2014 10:00 7,4 C 92 % 1002,3 hPa 0,0 mm 5,3 km/h (1 Bft) S-SE 6,1 C 7,2 C 10,3 km/h (2 Bft)
25/02/2014 11:00 9,2 C 86 % 1002,8 hPa 0,0 mm 8,8 km/h (2 Bft) S 7,0 C 7,5 C 18,5 km/h (3 Bft)
25/02/2014 12:00 9,0 C 83 % 1003,4 hPa 0,0 mm 11,3 km/h (2 Bft) SO 6,3 C 6,1 C 23,1 km/h (4 Bft)
25/02/2014 13:00 10,9 C 76 % 1003,6 hPa 0,0 mm 12,9 km/h (3 Bft) S 6,9 C 7,2 C 29,6 km/h (5 Bft)
25/02/2014 14:00 10,2 C 76 % 1003,9 hPa 0,0 mm 12,4 km/h (3 Bft) S 6,1 C 6,7 C 28,6 km/h (4 Bft)
25/02/2014 15:00 9,4 C 76 % 1004,1 hPa 0,0 mm 7,8 km/h (2 Bft) S 5,4 C 8,3 C 16,6 km/h (3 Bft)
25/02/2014 16:00 10,0 C 76 % 1004,4 hPa 0,0 mm 10,3 km/h (2 Bft) O 6,0 C 7,5 C 21,6 km/h (4 Bft)
25/02/2014 17:00 9,1 C 76 % 1005,0 hPa 0,0 mm 7,5 km/h (2 Bft) SO 5,1 C 7,8 C 16,4 km/h (3 Bft)
25/02/2014 18:00 8,1 C 76 % 1005,6 hPa 0,0 mm 6,8 km/h (2 Bft) SO 4,1 C 7,2 C 13,7 km/h (3 Bft)
25/02/2014 19:00 6,4 C 76 % 1006,6 hPa 0,0 mm 2,2 km/h (1 Bft) S-SO 2,5 C 6,4 C 5,6 km/h (1 Bft)
25/02/2014 20:00 5,6 C 76 % 1007,5 hPa 0,0 mm 2,0 km/h (1 Bft) SO 1,7 C 5,6 C 4,8 km/h (1 Bft)
25/02/2014 21:00 4,9 C 76 % 1008,5 hPa 0,0 mm 1,0 km/h (0 Bft) O-SO 1,0 C 4,9 C 2,9 km/h (1 Bft)
25/02/2014 22:00 5,4 C 76 % 1009,3 hPa 0,0 mm 4,8 km/h (1 Bft) O-SO 1,5 C 4,7 C 10,2 km/h (2 Bft)
25/02/2014 23:00 4,7 C 76 % 1010,0 hPa 0,0 mm 0,5 km/h (0 Bft) O-SO 0,8 C 4,7 C 1,7 km/h (1 Bft)
26/02/2014 00:00 3,8 C 76 % 1010,9 hPa 0,0 mm 0,0 km/h (0 Bft) N -0,0 C 3,8 C 0,0 km/h (0 Bft)
26/02/2014 01:00 3,2 C 76 % 1011,7 hPa 0,0 mm 0,5 km/h (0 Bft) SO -0,6 C 3,2 C 1,5 km/h (1 Bft)
26/02/2014 02:00 3,7 C 76 % 1012,3 hPa 0,0 mm 1,6 km/h (1 Bft) NE -0,1 C 3,7 C 3,9 km/h (1 Bft)
26/02/2014 03:00 2,8 C 76 % 1012,7 hPa 0,0 mm 0,5 km/h (0 Bft) O -1,0 C 2,8 C 1,7 km/h (1 Bft)
26/02/2014 04:00 1,5 C 76 % 1013,1 hPa 0,0 mm 0,0 km/h (0 Bft) N -2,2 C 1,5 C 0,0 km/h (0 Bft)
26/02/2014 05:00 1,8 C 76 % 1014,0 hPa 0,0 mm 0,1 km/h (0 Bft) N -1,9 C 1,8 C 0,4 km/h (0 Bft)
26/02/2014 06:00 0,9 C 76 % 1014,8 hPa 0,0 mm 0,2 km/h (0 Bft) NO -2,8 C 0,9 C 0,5 km/h (0 Bft)
26/02/2014 07:00 1,0 C 76 % 1015,8 hPa 0,0 mm 0,5 km/h (0 Bft) S-SO -2,7 C 1,0 C 1,7 km/h (1 Bft)
26/02/2014 08:00 1,0 C 76 % 1017,0 hPa 0,0 mm 0,2 km/h (0 Bft) N -2,7 C 1,0 C 1,1 km/h (0 Bft)
26/02/2014 09:00 3,5 C 76 % 1018,3 hPa 0,0 mm 0,1 km/h (0 Bft) N -0,3 C 3,5 C 1,1 km/h (0 Bft)
26/02/2014 10:00 8,2 C 76 % 1018,9 hPa 0,0 mm 1,4 km/h (1 Bft) O-SO 4,3 C 8,2 C 3,7 km/h (1 Bft)
26/02/2014 11:00 10,3 C 76 % 1019,5 hPa 0,0 mm 7,2 km/h (2 Bft) S-SO 6,2 C 9,1 C 14,6 km/h (3 Bft)
26/02/2014 12:00 10,8 C 76 % 1019,9 hPa 0,0 mm 1,1 km/h (1 Bft) S-SE 6,8 C 10,7 C 2,5 km/h (1 Bft)
26/02/2014 13:00 7,9 C 76 % 1020,5 hPa 0,0 mm 5,1 km/h (1 Bft) O-SO 3,9 C 6,8 C 12,1 km/h (2 Bft)
26/02/2014 14:00 10,6 C 76 % 1020,1 hPa 0,0 mm 5,9 km/h (2 Bft) S 6,6 C 9,6 C 12,9 km/h (3 Bft)
26/02/2014 15:00 9,8 C 76 % 1020,5 hPa 0,0 mm 9,1 km/h (2 Bft) S-SO 5,8 C 7,7 C 19,6 km/h (3 Bft)
26/02/2014 16:00 10,5 C 76 % 1020,5 hPa 0,0 mm 7,4 km/h (2 Bft) SO 6,4 C 9,5 C 15,2 km/h (3 Bft)
26/02/2014 17:00 9,5 C 76 % 1020,6 hPa 0,0 mm 6,8 km/h (2 Bft) SO 5,5 C 8,9 C 16,0 km/h (3 Bft)
26/02/2014 18:00 8,7 C 76 % 1020,5 hPa 0,0 mm 5,2 km/h (1 Bft) S-SO 4,7 C 8,6 C 11,3 km/h (2 Bft)
26/02/2014 19:00 7,7 C 76 % 1020,5 hPa 0,0 mm 3,4 km/h (1 Bft) S 3,7 C 7,7 C 7,0 km/h (2 Bft)
26/02/2014 20:00 7,6 C 76 % 1020,3 hPa 0,0 mm 2,6 km/h (1 Bft) E-SE 3,6 C 7,6 C 6,0 km/h (2 Bft)
26/02/2014 21:00 8,0 C 76 % 1019,6 hPa 0,0 mm 2,9 km/h (1 Bft) S-SE 4,1 C 8,0 C 6,7 km/h (2 Bft)
26/02/2014 22:00 9,1 C 76 % 1018,9 hPa 0,0 mm 5,9 km/h (2 Bft) E-SE 5,1 C 9,0 C 12,6 km/h (3 Bft)
26/02/2014 23:00 8,9 C 76 % 1017,9 hPa 0,0 mm 8,2 km/h (2 Bft) S 4,9 C 7,5 C 16,5 km/h (3 Bft)
27/02/2014 00:00 8,9 C 76 % 1016,7 hPa 0,0 mm 10,5 km/h (2 Bft) E-SE 4,9 C 6,2 C 22,5 km/h (4 Bft)
27/02/2014 01:00 8,8 C 76 % 1015,3 hPa 0,0 mm 10,9 km/h (2 Bft) S 4,8 C 5,9 C 23,2 km/h (4 Bft)
27/02/2014 02:00 9,2 C 76 % 1013,6 hPa 0,0 mm 12,5 km/h (3 Bft) S-SE 5,2 C 5,4 C 27,3 km/h (4 Bft)
27/02/2014 03:00 10,0 C 76 % 1012,0 hPa 0,0 mm 12,2 km/h (3 Bft) E-SE 6,0 C 6,4 C 25,3 km/h (4 Bft)
27/02/2014 04:00 11,0 C 76 % 1011,2 hPa 0,0 mm 12,2 km/h (2 Bft) SO 7,0 C 7,6 C 25,6 km/h (4 Bft)
27/02/2014 05:00 10,7 C 76 % 1011,8 hPa 0,0 mm 14,3 km/h (3 Bft) O-SO 6,7 C 6,4 C 26,6 km/h (4 Bft)
27/02/2014 06:00 9,8 C 76 % 1012,5 hPa 0,0 mm 11,0 km/h (2 Bft) O-SO 5,8 C 6,9 C 20,8 km/h (4 Bft)
27/02/2014 07:00 9,2 C 76 % 1013,3 hPa 0,0 mm 8,2 km/h (2 Bft) O-SO 5,2 C 7,9 C 16,2 km/h (3 Bft)
27/02/2014 08:00 9,1 C 76 % 1013,6 hPa 0,0 mm 7,0 km/h (2 Bft) SO 5,1 C 8,6 C 14,2 km/h (3 Bft)
27/02/2014 09:00 9,9 C 76 % 1014,7 hPa 0,0 mm 11,8 km/h (2 Bft) O-SO 5,9 C 6,7 C 23,1 km/h (4 Bft)
27/02/2014 10:00 11,3 C 76 % 1015,4 hPa 0,0 mm 16,0 km/h (3 Bft) O-SO 7,2 C 6,4 C 30,2 km/h (5 Bft)
27/02/2014 11:00 11,6 C 76 % 1015,7 hPa 0,0 mm 17,6 km/h (3 Bft) O-SO 7,5 C 6,2 C 32,3 km/h (5 Bft)
27/02/2014 12:00 11,9 C 76 % 1015,8 hPa 0,0 mm 16,1 km/h (3 Bft) O-SO 7,8 C 7,1 C 29,0 km/h (5 Bft)
27/02/2014 13:00 9,6 C 76 % 1016,0 hPa 0,0 mm 14,2 km/h (3 Bft) O-SO 5,6 C 5,2 C 26,6 km/h (4 Bft)
27/02/2014 14:00 10,3 C 76 % 1015,6 hPa 0,0 mm 14,0 km/h (3 Bft) O-SO 6,2 C 6,0 C 26,5 km/h (4 Bft)
27/02/2014 15:00 10,7 C 76 % 1015,2 hPa 0,0 mm 17,9 km/h (3 Bft) O-SO 6,6 C 4,9 C 31,5 km/h (5 Bft)
27/02/2014 16:00 9,7 C 76 % 1015,2 hPa 0,0 mm 18,1 km/h (3 Bft) O-SO 5,7 C 3,6 C 34,5 km/h (5 Bft)
27/02/2014 17:00 10,1 C 76 % 1015,1 hPa 0,0 mm 18,2 km/h (3 Bft) O-SO 6,0 C 4,1 C 34,3 km/h (5 Bft)
27/02/2014 18:00 9,3 C 76 % 1014,9 hPa 0,0 mm 9,3 km/h (2 Bft) SO 5,3 C 7,2 C 18,5 km/h (3 Bft)
27/02/2014 19:00 8,9 C 76 % 1014,6 hPa 0,0 mm 6,0 km/h (2 Bft) SO 4,9 C 8,7 C 12,1 km/h (2 Bft)
27/02/2014 20:00 9,2 C 76 % 1013,9 hPa 0,0 mm 5,0 km/h (1 Bft) S-SO 5,2 C 9,2 C 11,3 km/h (2 Bft)
27/02/2014 21:00 9,3 C 76 % 1012,7 hPa 0,0 mm 5,9 km/h (2 Bft) S 5,3 C 9,0 C 14,5 km/h (3 Bft)
27/02/2014 22:00 7,8 C 76 % 1011,1 hPa 0,0 mm 9,3 km/h (2 Bft) S 3,8 C 5,7 C 21,6 km/h (4 Bft)
27/02/2014 23:00 7,7 C 76 % 1008,1 hPa 0,0 mm 7,5 km/h (2 Bft) S 3,7 C 6,3 C 15,6 km/h (3 Bft)
28/02/2014 00:00 9,2 C 76 % 1005,4 hPa 0,0 mm 14,0 km/h (3 Bft) S-SO 5,2 C 4,9 C 31,3 km/h (5 Bft)
28/02/2014 01:00 8,3 C 76 % 1004,3 hPa 0,0 mm 12,3 km/h (3 Bft) SO 4,3 C 4,6 C 24,3 km/h (4 Bft)
28/02/2014 02:00 7,8 C 76 % 1003,8 hPa 0,0 mm 13,7 km/h (3 Bft) O-SO 3,8 C 3,2 C 25,2 km/h (4 Bft)
28/02/2014 03:00 5,7 C 76 % 1003,5 hPa 0,0 mm 10,2 km/h (2 Bft) O-SO 1,8 C 2,9 C 19,0 km/h (3 Bft)
28/02/2014 04:00 5,9 C 76 % 1002,3 hPa 0,0 mm 10,5 km/h (2 Bft) SO 2,0 C 2,8 C 21,1 km/h (4 Bft)
28/02/2014 05:00 6,0 C 76 % 1001,5 hPa 0,0 mm 11,4 km/h (2 Bft) O-SO 2,1 C 2,6 C 23,3 km/h (4 Bft)
28/02/2014 06:00 6,0 C 76 % 1001,1 hPa 0,0 mm 18,8 km/h (3 Bft) SO 2,1 C -1,2 C 37,5 km/h (5 Bft)
28/02/2014 07:00 6,3 C 76 % 1000,5 hPa 0,0 mm 18,9 km/h (3 Bft) SO 2,3 C -1,0 C 35,8 km/h (5 Bft)
28/02/2014 08:00 6,6 C 25 % 1000,3 hPa 0,0 mm 24,0 km/h (4 Bft) O-SO -39,1 C -2,4 C 43,6 km/h (6 Bft)
28/02/2014 09:00 7,2 C 0 % 1000,7 hPa 0,0 mm 25,8 km/h (4 Bft) O-SO -60,0 C -2,1 C 48,7 km/h (6 Bft)
28/02/2014 10:00 6,3 C 0 % 1001,4 hPa 0,0 mm 29,8 km/h (5 Bft) O-SO -60,0 C -4,4 C 57,5 km/h (7 Bft)
28/02/2014 11:00 6,7 C 0 % 1002,0 hPa 0,0 mm 28,8 km/h (4 Bft) O-SO -60,0 C -3,6 C 55,2 km/h (7 Bft)
28/02/2014 12:00 6,7 C 0 % 1003,2 hPa 0,0 mm 27,9 km/h (4 Bft) O-SO -60,0 C -3,5 C 52,7 km/h (7 Bft)
28/02/2014 13:00 7,5 C 0 % 1004,1 hPa 0,0 mm 21,2 km/h (4 Bft) SO -60,0 C -0,2 C 42,5 km/h (6 Bft)
28/02/2014 14:00 7,4 C 0 % 1005,1 hPa 0,0 mm 18,0 km/h (3 Bft) O -60,0 C 0,8 C 38,4 km/h (5 Bft)
28/02/2014 15:00 8,5 C 0 % 1006,1 hPa 0,0 mm 21,6 km/h (4 Bft) SO -60,0 C 0,9 C 41,8 km/h (6 Bft)
28/02/2014 16:00 8,6 C 0 % 1006,8 hPa 0,0 mm 20,6 km/h (4 Bft) O-SO -60,0 C 1,4 C 37,8 km/h (5 Bft)
28/02/2014 17:00 8,7 C 0 % 1007,8 hPa 0,0 mm 21,9 km/h (4 Bft) O-SO -60,0 C 1,1 C 42,4 km/h (6 Bft)
28/02/2014 18:00 8,0 C 0 % 1008,6 hPa 0,0 mm 15,7 km/h (3 Bft) O-SO -60,0 C 2,4 C 31,8 km/h (5 Bft)
28/02/2014 19:00 7,4 C 0 % 1009,3 hPa 0,0 mm 14,0 km/h (3 Bft) O -60,0 C 2,5 C 28,7 km/h (4 Bft)
28/02/2014 20:00 7,0 C 0 % 1009,7 hPa 0,0 mm 11,8 km/h (2 Bft) O-SO -60,0 C 3,2 C 22,2 km/h (4 Bft)
28/02/2014 21:00 6,5 C 0 % 1009,9 hPa 0,0 mm 12,7 km/h (3 Bft) O-SO -60,0 C 2,2 C 26,4 km/h (4 Bft)
28/02/2014 22:00 5,8 C 0 % 1010,0 hPa 0,0 mm 6,5 km/h (2 Bft) O-SO -60,0 C 5,4 C 13,6 km/h (3 Bft)
28/02/2014 23:00 5,5 C 0 % 1010,0 hPa 0,0 mm 3,6 km/h (1 Bft) O -60,0 C 5,5 C 8,0 km/h (2 Bft)
01/03/2014 00:00 4,7 C 0 % 1010,1 hPa 0,0 mm 1,9 km/h (1 Bft) O-SO -60,0 C 4,7 C 4,7 km/h (1 Bft)
01/03/2014 01:00 2,7 C 0 % 1009,6 hPa 0,0 mm 0,1 km/h (0 Bft) N -60,0 C 2,7 C 0,5 km/h (0 Bft)
01/03/2014 02:00 2,0 C 0 % 1009,1 hPa 0,0 mm 0,0 km/h (0 Bft) N -60,0 C 2,0 C 0,3 km/h (0 Bft)
01/03/2014 03:00 3,3 C 0 % 1008,5 hPa 0,0 mm 1,1 km/h (1 Bft) S-SO -60,0 C 3,3 C 3,2 km/h (1 Bft)
01/03/2014 04:00 3,0 C 0 % 1007,8 hPa 0,0 mm 0,4 km/h (0 Bft) N-NO -60,0 C 3,0 C 1,2 km/h (1 Bft)
01/03/2014 05:00 2,9 C 0 % 1006,9 hPa 0,0 mm 0,4 km/h (0 Bft) N-NO -60,0 C 2,9 C 1,5 km/h (1 Bft)
01/03/2014 06:00 2,9 C 0 % 1006,0 hPa 0,0 mm 0,6 km/h (0 Bft) N-NO -60,0 C 2,9 C 2,3 km/h (1 Bft)
01/03/2014 07:00 2,6 C 0 % 1005,6 hPa 0,0 mm 0,6 km/h (0 Bft) N-NE -60,0 C 2,6 C 2,0 km/h (1 Bft)
01/03/2014 08:00 2,7 C 0 % 1004,9 hPa 0,0 mm 0,1 km/h (0 Bft) N -60,0 C 2,7 C 0,7 km/h (0 Bft)
01/03/2014 09:00 3,9 C 0 % 1004,5 hPa 0,0 mm 0,0 km/h (0 Bft) N -60,0 C 3,9 C 0,3 km/h (0 Bft)
01/03/2014 10:00 5,6 C 0 % 1004,1 hPa 0,0 mm 0,0 km/h (0 Bft) N -60,0 C 5,6 C 0,0 km/h (0 Bft)
01/03/2014 11:00 7,7 C 0 % 1003,7 hPa 0,0 mm 3,2 km/h (1 Bft) E-NE -60,0 C 7,7 C 7,4 km/h (2 Bft)
01/03/2014 12:00 8,6 C 0 % 1003,4 hPa 0,0 mm 5,8 km/h (1 Bft) E-SE -60,0 C 8,4 C 12,5 km/h (3 Bft)
01/03/2014 13:00 9,2 C 0 % 1002,9 hPa 0,0 mm 8,0 km/h (2 Bft) E -60,0 C 8,0 C 15,3 km/h (3 Bft)
01/03/2014 14:00 9,0 C 0 % 1002,7 hPa 0,0 mm 7,4 km/h (2 Bft) E -60,0 C 8,1 C 14,8 km/h (3 Bft)
01/03/2014 15:00 9,0 C 0 % 1002,5 hPa 0,0 mm 5,6 km/h (1 Bft) E -60,0 C 8,9 C 12,6 km/h (3 Bft)
01/03/2014 16:00 8,6 C 0 % 1002,4 hPa 0,0 mm 4,5 km/h (1 Bft) S-SE -60,0 C 8,5 C 9,5 km/h (2 Bft)
01/03/2014 17:00 9,4 C 0 % 1002,1 hPa 0,0 mm 5,5 km/h (1 Bft) E-SE -60,0 C 9,1 C 12,1 km/h (2 Bft)
01/03/2014 18:00 8,7 C 0 % 1002,2 hPa 0,0 mm 4,6 km/h (1 Bft) E-SE -60,0 C 8,6 C 10,5 km/h (2 Bft)
01/03/2014 19:00 8,0 C 0 % 1002,7 hPa 0,0 mm 3,4 km/h (1 Bft) E-NE -60,0 C 8,0 C 7,0 km/h (2 Bft)
01/03/2014 20:00 7,0 C 0 % 1003,1 hPa 0,0 mm 2,4 km/h (1 Bft) E-NE -60,0 C 7,0 C 4,1 km/h (1 Bft)
01/03/2014 21:00 6,9 C 0 % 1003,8 hPa 0,0 mm 1,9 km/h (1 Bft) E-NE -60,0 C 6,9 C 4,8 km/h (1 Bft)
01/03/2014 22:00 7,0 C 0 % 1004,1 hPa 0,0 mm 0,7 km/h (0 Bft) E-NE -60,0 C 7,0 C 2,7 km/h (1 Bft)
01/03/2014 23:00 7,0 C 0 % 1004,5 hPa 0,0 mm 0,9 km/h (0 Bft) E-NE -60,0 C 7,0 C 2,3 km/h (1 Bft)
02/03/2014 00:00 6,8 C 0 % 1004,3 hPa 0,0 mm 2,7 km/h (1 Bft) E-NE -60,0 C 6,8 C 5,2 km/h (1 Bft)
02/03/2014 01:00 6,7 C 0 % 1004,0 hPa 0,0 mm 3,0 km/h (1 Bft) E-NE -60,0 C 6,7 C 5,5 km/h (1 Bft)
02/03/2014 02:00 6,8 C 0 % 1003,9 hPa 0,0 mm 1,1 km/h (1 Bft) E-NE -60,0 C 6,8 C 2,7 km/h (1 Bft)
02/03/2014 03:00 7,0 C 0 % 1003,7 hPa 0,0 mm 2,2 km/h (1 Bft) E-NE -60,0 C 7,0 C 4,3 km/h (1 Bft)
02/03/2014 04:00 7,1 C 0 % 1003,2 hPa 0,0 mm 3,0 km/h (1 Bft) E-NE -60,0 C 7,1 C 5,9 km/h (2 Bft)
02/03/2014 05:00 7,4 C 0 % 1003,0 hPa 0,0 mm 2,2 km/h (1 Bft) E -60,0 C 7,4 C 5,3 km/h (1 Bft)
02/03/2014 06:00 8,0 C 0 % 1002,9 hPa 0,0 mm 3,1 km/h (1 Bft) E-SE -60,0 C 8,0 C 6,7 km/h (2 Bft)
02/03/2014 07:00 8,2 C 0 % 1002,1 hPa 0,0 mm 5,1 km/h (1 Bft) E-SE -60,0 C 8,2 C 12,2 km/h (2 Bft)
02/03/2014 08:00 8,7 C 0 % 1001,5 hPa 0,0 mm 6,2 km/h (2 Bft) E -60,0 C 8,5 C 14,1 km/h (3 Bft)
02/03/2014 09:00 9,2 C 0 % 1001,0 hPa 0,0 mm 7,0 km/h (2 Bft) SE -60,0 C 8,7 C 15,4 km/h (3 Bft)
02/03/2014 10:00 9,9 C 0 % 1000,4 hPa 0,0 mm 9,0 km/h (2 Bft) S -60,0 C 8,1 C 18,5 km/h (3 Bft)
02/03/2014 11:00 10,3 C 0 % 999,6 hPa 0,0 mm 9,4 km/h (2 Bft) S-SE -60,0 C 8,3 C 19,7 km/h (3 Bft)
02/03/2014 12:00 10,3 C 0 % 998,9 hPa 0,0 mm 9,5 km/h (2 Bft) S-SE -60,0 C 8,2 C 18,9 km/h (3 Bft)
02/03/2014 13:00 10,2 C 0 % 997,5 hPa 0,0 mm 10,2 km/h (2 Bft) S -60,0 C 7,8 C 19,4 km/h (3 Bft)
02/03/2014 14:00 10,3 C 0 % 995,6 hPa 0,0 mm 10,6 km/h (2 Bft) SE -60,0 C 7,7 C 22,7 km/h (4 Bft)
02/03/2014 15:00 10,4 C 0 % 993,6 hPa 0,0 mm 11,4 km/h (2 Bft) S-SE -60,0 C 7,4 C 24,9 km/h (4 Bft)
02/03/2014 16:00 10,5 C 0 % 991,6 hPa 0,0 mm 11,9 km/h (2 Bft) SE -60,0 C 7,2 C 24,5 km/h (4 Bft)
02/03/2014 17:00 10,2 C 0 % 990,0 hPa 0,0 mm 13,2 km/h (3 Bft) S -60,0 C 6,2 C 28,0 km/h (4 Bft)
02/03/2014 18:00 8,0 C 0 % 989,6 hPa 0,0 mm 7,9 km/h (2 Bft) SO -60,0 C 6,4 C 16,8 km/h (3 Bft)
02/03/2014 19:00 8,2 C 0 % 989,1 hPa 0,0 mm 7,0 km/h (2 Bft) SO -60,0 C 7,2 C 16,2 km/h (3 Bft)
02/03/2014 20:00 7,2 C 0 % 989,4 hPa 0,0 mm 16,5 km/h (3 Bft) O-SO -60,0 C 1,2 C 32,7 km/h (5 Bft)
02/03/2014 21:00 6,2 C 0 % 990,1 hPa 0,0 mm 16,9 km/h (3 Bft) SO -60,0 C 0,1 C 31,5 km/h (5 Bft)
02/03/2014 22:00 5,1 C 0 % 990,6 hPa 0,0 mm 10,4 km/h (2 Bft) O-SO -60,0 C 2,1 C 19,2 km/h (3 Bft)
02/03/2014 23:00 5,1 C 0 % 990,6 hPa 0,0 mm 6,3 km/h (2 Bft) SO -60,0 C 4,2 C 13,0 km/h (3 Bft)
Min-Date _ 26/02/14 28/02/14 02/03/14 - 24/02/14 - 28/02/14 28/02/14 24/02/14
_ Min-Heure 06:45 08:20 19:40 - 03:00 - 08:20 10:15 03:00
Minimum _ 0,4 C 0 % 989,0 hPa - 0,0 km/h (0 Bft) - -60,0 C -6,0 C 0,0 km/h (0 Bft)
Max-Date _ 24/02/14 24/02/14 26/02/14 24/02/14 28/02/14 - 24/02/14 24/02/14 28/02/14
_ Max-Heure 13:55 07:00 13:10 00:00 09:35 - 12:50 12:50 09:30
Maximum _ 13,0 C 98 % 1020,9 hPa 0,0 mm 35,4 km/h
O-SO (5 Bft)
- 10,2 C 12,7 C 69,2 km/h
O-SO (8 Bft)
Moyenne _ 7,8 C 50 % 1006,9 hPa #0,0 mm 8,1 km/h (2 Bft) O-SO -19,5 C 5,8 C 16,7 km/h (3 Bft)